createdAt,value
2018-03-22T00:00:14.777Z,2.50
2018-03-22T00:02:18.393Z,2.50
2018-03-22T00:04:25.444Z,2.60
2018-03-22T00:06:29.044Z,2.60
2018-03-22T00:08:32.608Z,2.60
2018-03-22T00:10:36.898Z,3.40
2018-03-22T00:12:40.463Z,3.40
2018-03-22T00:14:44.979Z,3.20
2018-03-22T00:16:48.562Z,3.30
2018-03-22T00:18:52.106Z,3.20
2018-03-22T00:20:56.671Z,3.00
2018-03-22T00:23:00.354Z,3.30
2018-03-22T00:25:06.922Z,3.30
2018-03-22T00:27:10.453Z,2.90
2018-03-22T00:29:13.996Z,3.00
2018-03-22T00:31:18.180Z,3.20
2018-03-22T00:33:21.768Z,3.40
2018-03-22T00:35:27.103Z,3.70
2018-03-22T00:37:31.924Z,3.10
2018-03-22T00:39:35.465Z,3.20
2018-03-22T00:41:39.947Z,3.60
2018-03-22T00:43:45.049Z,3.30
2018-03-22T00:45:48.546Z,3.30
2018-03-22T00:47:52.136Z,3.50
2018-03-22T00:49:55.696Z,3.10
2018-03-22T00:51:59.208Z,3.10
2018-03-22T00:54:02.833Z,3.10
2018-03-22T00:56:06.477Z,3.00
2018-03-22T00:58:12.091Z,3.40
2018-03-22T01:00:15.663Z,3.40
2018-03-22T01:02:19.214Z,3.40
2018-03-22T01:04:22.750Z,3.30
2018-03-22T01:06:26.356Z,3.70
2018-03-22T01:08:29.897Z,3.70
2018-03-22T01:10:33.469Z,3.00
2018-03-22T01:12:37.074Z,3.30
2018-03-22T01:14:40.642Z,3.70
2018-03-22T01:16:44.606Z,3.50
2018-03-22T01:18:48.230Z,3.30
2018-03-22T01:20:51.886Z,3.40
2018-03-22T01:22:55.461Z,3.50
2018-03-22T01:24:59.277Z,3.50
2018-03-22T01:27:04.053Z,3.50
2018-03-22T01:29:08.205Z,3.20
2018-03-22T01:31:11.720Z,3.50
2018-03-22T01:33:16.094Z,3.40
2018-03-22T01:35:19.907Z,3.40
2018-03-22T01:37:23.932Z,3.30
2018-03-22T01:39:28.239Z,3.40
2018-03-22T01:41:31.755Z,3.40
2018-03-22T01:43:36.085Z,3.30
2018-03-22T01:45:42.209Z,3.30
2018-03-22T01:47:45.873Z,3.30
2018-03-22T01:49:49.512Z,3.20
2018-03-22T01:51:53.038Z,3.60
2018-03-22T01:53:56.626Z,3.40
2018-03-22T01:56:00.936Z,3.20
2018-03-22T01:58:05.280Z,3.10
2018-03-22T02:00:08.867Z,3.10
2018-03-22T02:02:15.317Z,3.10
2018-03-22T02:04:19.621Z,3.70
2018-03-22T02:06:26.108Z,3.40
2018-03-22T02:08:29.649Z,3.40
2018-03-22T02:10:33.155Z,3.30
2018-03-22T02:12:36.690Z,3.20
2018-03-22T02:14:40.626Z,3.20
2018-03-22T02:16:45.100Z,3.40
2018-03-22T02:18:51.289Z,3.30
2018-03-22T02:20:55.686Z,3.20
2018-03-22T02:23:01.458Z,3.10
2018-03-22T02:25:06.522Z,3.10
2018-03-22T02:27:10.043Z,3.20
2018-03-22T02:29:14.352Z,3.00
2018-03-22T02:31:18.023Z,3.10
2018-03-22T02:33:21.564Z,3.20
2018-03-22T02:35:25.117Z,3.30
2018-03-22T02:37:30.743Z,3.30
2018-03-22T02:39:34.369Z,3.30
2018-03-22T02:41:37.867Z,3.20
2018-03-22T02:43:42.179Z,3.50
2018-03-22T02:45:52.857Z,3.50
2018-03-22T02:47:57.702Z,3.60
2018-03-22T02:50:01.248Z,3.30
2018-03-22T02:52:05.601Z,3.40
2018-03-22T02:54:11.413Z,3.40
2018-03-22T02:56:15.016Z,3.30
2018-03-22T02:58:18.558Z,3.20
2018-03-22T03:00:24.299Z,3.40
2018-03-22T03:02:29.161Z,3.40
2018-03-22T03:04:32.735Z,3.40
2018-03-22T03:06:36.275Z,3.50
2018-03-22T03:08:40.593Z,3.50
2018-03-22T03:10:44.126Z,3.50
2018-03-22T03:12:48.504Z,3.60
2018-03-22T03:14:52.804Z,3.60
2018-03-22T03:16:56.327Z,3.60
2018-03-22T03:18:59.954Z,3.50
2018-03-22T03:21:03.481Z,3.40
2018-03-22T03:23:07.028Z,3.30
2018-03-22T03:25:10.596Z,3.40
2018-03-22T03:27:14.883Z,3.40
2018-03-22T03:29:18.428Z,3.40
2018-03-22T03:31:22.748Z,3.50
2018-03-22T03:33:26.311Z,3.50
2018-03-22T03:35:30.578Z,3.60
2018-03-22T03:37:34.205Z,3.60
2018-03-22T03:39:37.747Z,3.80
2018-03-22T03:41:41.329Z,3.70
2018-03-22T03:43:45.644Z,3.50
2018-03-22T03:45:49.969Z,3.70
2018-03-22T03:47:54.279Z,3.50
2018-03-22T03:49:57.888Z,3.50
2018-03-22T03:52:01.515Z,3.50
2018-03-22T03:54:05.070Z,3.80
2018-03-22T03:56:08.646Z,3.70
2018-03-22T03:58:12.994Z,3.90
2018-03-22T04:00:16.555Z,3.90
2018-03-22T04:02:20.831Z,3.60
2018-03-22T04:04:24.450Z,3.60
2018-03-22T04:06:27.944Z,3.70
2018-03-22T04:08:32.278Z,3.80
2018-03-22T04:10:36.658Z,3.70
2018-03-22T04:12:40.292Z,3.70
2018-03-22T04:14:43.860Z,4.00
2018-03-22T04:16:47.399Z,4.00
2018-03-22T04:18:50.915Z,3.90
2018-03-22T04:20:54.508Z,3.90
2018-03-22T04:22:58.054Z,3.80
2018-03-22T04:25:01.579Z,4.00
2018-03-22T04:27:05.920Z,3.90
2018-03-22T04:29:09.474Z,3.90
2018-03-22T04:31:13.809Z,3.90
2018-03-22T04:33:18.138Z,4.00
2018-03-22T04:35:21.690Z,4.00
2018-03-22T04:37:26.024Z,3.90
2018-03-22T04:39:29.570Z,3.80
2018-03-22T04:41:33.079Z,3.90
2018-03-22T04:43:36.680Z,3.90
2018-03-22T04:45:40.264Z,4.10
2018-03-22T04:47:43.801Z,4.10
2018-03-22T04:49:48.128Z,3.90
2018-03-22T04:51:51.689Z,3.90
2018-03-22T04:53:55.307Z,4.00
2018-03-22T04:55:59.617Z,4.10
2018-03-22T04:58:03.294Z,4.10
2018-03-22T05:00:07.706Z,4.10
2018-03-22T05:02:11.264Z,4.10
2018-03-22T05:04:14.860Z,4.00
2018-03-22T05:06:18.392Z,4.00
2018-03-22T05:08:21.928Z,4.10
2018-03-22T05:10:25.517Z,4.20
2018-03-22T05:12:29.052Z,4.00
2018-03-22T05:14:32.606Z,4.10
2018-03-22T05:16:36.195Z,4.20
2018-03-22T05:18:40.523Z,4.10
2018-03-22T05:20:44.128Z,4.10
2018-03-22T05:22:47.697Z,4.20
2018-03-22T05:24:52.002Z,4.20
2018-03-22T05:26:55.580Z,4.10
2018-03-22T05:28:59.145Z,4.10
2018-03-22T05:31:02.697Z,4.10
2018-03-22T05:33:07.065Z,4.20
2018-03-22T05:35:10.589Z,4.10
2018-03-22T05:37:14.166Z,4.20
2018-03-22T05:39:17.796Z,4.20
2018-03-22T05:41:22.309Z,4.20
2018-03-22T05:43:26.103Z,4.20
2018-03-22T05:45:29.745Z,4.20
2018-03-22T05:47:33.479Z,4.30
2018-03-22T05:49:37.272Z,4.10
2018-03-22T05:51:40.798Z,4.20
2018-03-22T05:53:44.376Z,4.20
2018-03-22T05:55:48.661Z,4.40
2018-03-22T05:57:52.290Z,4.30
2018-03-22T05:59:55.795Z,4.30
2018-03-22T06:01:59.368Z,4.40
2018-03-22T06:04:02.926Z,4.30
2018-03-22T06:06:06.477Z,4.30
2018-03-22T06:08:10.043Z,4.30
2018-03-22T06:10:13.612Z,4.30
2018-03-22T06:12:17.244Z,4.30
2018-03-22T06:14:20.816Z,4.30
2018-03-22T06:16:24.364Z,4.30
2018-03-22T06:18:27.880Z,4.40
2018-03-22T06:20:31.482Z,4.30
2018-03-22T06:22:35.813Z,4.40
2018-03-22T06:24:39.317Z,4.30
2018-03-22T06:26:42.916Z,4.40
2018-03-22T06:28:46.426Z,4.40
2018-03-22T06:30:49.969Z,4.40
2018-03-22T06:32:54.364Z,4.40
2018-03-22T06:34:57.913Z,4.40
2018-03-22T06:37:01.413Z,4.50
2018-03-22T06:39:05.050Z,4.50
2018-03-22T06:41:09.394Z,4.50
2018-03-22T06:43:12.984Z,4.50
2018-03-22T06:45:16.563Z,4.50
2018-03-22T06:47:20.148Z,4.50
2018-03-22T06:49:23.743Z,4.60
2018-03-22T06:51:27.245Z,4.50
2018-03-22T06:53:30.872Z,4.60
2018-03-22T06:55:35.146Z,4.60
2018-03-22T06:57:38.690Z,4.60
2018-03-22T06:59:42.266Z,4.60
2018-03-22T07:01:45.795Z,4.60
2018-03-22T07:03:49.386Z,4.60
2018-03-22T07:05:52.962Z,4.60
2018-03-22T07:07:57.233Z,4.60
2018-03-22T07:10:00.769Z,4.60
2018-03-22T07:12:04.338Z,4.60
2018-03-22T07:14:07.854Z,4.60
2018-03-22T07:16:11.421Z,4.60
2018-03-22T07:18:15.021Z,4.60
2018-03-22T07:20:19.476Z,4.70
2018-03-22T07:22:23.761Z,4.60
2018-03-22T07:24:27.352Z,4.60
2018-03-22T07:26:30.865Z,4.70
2018-03-22T07:28:35.194Z,4.80
2018-03-22T07:30:39.522Z,4.70
2018-03-22T07:32:43.063Z,4.70
2018-03-22T07:34:46.644Z,4.80
2018-03-22T07:36:50.218Z,4.70
2018-03-22T07:38:53.771Z,4.80
2018-03-22T07:40:57.373Z,4.80
2018-03-22T07:43:07.383Z,4.90
2018-03-22T07:45:10.935Z,4.90
2018-03-22T07:47:14.447Z,4.90
2018-03-22T07:49:18.030Z,5.00
2018-03-22T07:51:21.561Z,5.00
2018-03-22T07:53:25.147Z,5.00
2018-03-22T07:55:28.709Z,5.00
2018-03-22T07:57:32.965Z,5.10
2018-03-22T07:59:36.696Z,5.10
2018-03-22T08:01:40.245Z,5.10
2018-03-22T08:03:43.827Z,5.10
2018-03-22T08:05:47.450Z,5.20
2018-03-22T08:07:51.031Z,5.20
2018-03-22T08:09:54.566Z,5.10
2018-03-22T08:11:58.125Z,5.20
2018-03-22T08:14:01.767Z,5.30
2018-03-22T08:16:05.278Z,5.40
2018-03-22T08:18:09.627Z,5.40
2018-03-22T08:20:13.194Z,5.40
2018-03-22T08:22:16.800Z,5.40
2018-03-22T08:24:21.132Z,5.50
2018-03-22T08:26:25.457Z,5.50
2018-03-22T08:28:28.947Z,5.50
2018-03-22T08:30:32.552Z,5.50
2018-03-22T08:32:36.170Z,5.50
2018-03-22T08:34:39.713Z,5.50
2018-03-22T08:36:43.202Z,5.50
2018-03-22T08:38:55.519Z,5.60
2018-03-22T08:41:00.811Z,5.60
2018-03-22T08:43:04.367Z,5.70
2018-03-22T08:45:11.790Z,5.70
2018-03-22T08:47:16.219Z,5.80
2018-03-22T08:49:21.457Z,5.80
2018-03-22T08:51:25.786Z,5.90
2018-03-22T08:53:29.352Z,5.90
2018-03-22T08:55:32.913Z,6.00
2018-03-22T08:57:36.468Z,6.20
2018-03-22T08:59:39.991Z,6.20
2018-03-22T09:01:44.044Z,6.20
2018-03-22T09:03:47.591Z,6.30
2018-03-22T09:05:51.148Z,6.40
2018-03-22T09:07:54.650Z,6.40
2018-03-22T09:09:58.157Z,6.50
2018-03-22T09:12:01.767Z,6.50
2018-03-22T09:14:05.317Z,6.60
2018-03-22T09:16:08.937Z,6.60
2018-03-22T09:18:13.214Z,6.70
2018-03-22T09:20:16.780Z,6.70
2018-03-22T09:22:21.149Z,6.90
2018-03-22T09:24:24.668Z,6.80
2018-03-22T09:26:28.995Z,6.90
2018-03-22T09:28:32.556Z,6.80
2018-03-22T09:30:36.059Z,6.80
2018-03-22T09:32:40.378Z,6.90
2018-03-22T09:34:43.894Z,6.90
2018-03-22T09:36:48.145Z,7.10
2018-03-22T09:38:51.762Z,7.00
2018-03-22T09:40:55.272Z,7.20
2018-03-22T09:42:59.553Z,7.10
2018-03-22T09:45:03.156Z,7.00
2018-03-22T09:47:06.694Z,7.00
2018-03-22T09:49:11.042Z,7.10
2018-03-22T09:51:14.605Z,7.00
2018-03-22T09:53:18.902Z,7.10
2018-03-22T09:55:22.500Z,7.10
2018-03-22T09:57:26.910Z,7.40
2018-03-22T09:59:30.411Z,7.40
2018-03-22T10:01:34.747Z,7.20
2018-03-22T10:03:38.299Z,7.20
2018-03-22T10:05:41.817Z,7.20
2018-03-22T10:07:46.139Z,7.30
2018-03-22T10:09:50.508Z,7.30
2018-03-22T10:11:54.056Z,7.20
2018-03-22T10:13:57.622Z,7.40
2018-03-22T10:16:01.173Z,7.30
2018-03-22T10:18:04.683Z,7.40
2018-03-22T10:20:08.314Z,7.20
2018-03-22T10:22:12.674Z,7.30
2018-03-22T10:24:17.144Z,7.30
2018-03-22T10:26:20.957Z,7.30
2018-03-22T10:28:24.460Z,7.30
2018-03-22T10:30:28.743Z,7.30
2018-03-22T10:32:32.325Z,7.20
2018-03-22T10:34:35.847Z,7.40
2018-03-22T10:36:39.436Z,7.30
2018-03-22T10:38:42.939Z,7.40
2018-03-22T10:40:46.421Z,7.40
2018-03-22T10:42:49.995Z,7.40
2018-03-22T10:44:53.564Z,7.30
2018-03-22T10:46:57.149Z,7.30
2018-03-22T10:49:00.732Z,7.30
2018-03-22T10:51:05.047Z,7.40
2018-03-22T10:53:08.557Z,7.40
2018-03-22T10:55:12.128Z,7.20
2018-03-22T10:57:16.431Z,7.10
2018-03-22T10:59:19.948Z,7.00
2018-03-22T11:01:29.153Z,7.10
2018-03-22T11:03:32.715Z,7.10
2018-03-22T11:05:36.283Z,7.10
2018-03-22T11:07:39.805Z,7.20
2018-03-22T11:09:43.358Z,7.30
2018-03-22T11:11:46.946Z,7.10
2018-03-22T11:13:50.552Z,7.00
2018-03-22T11:15:54.128Z,7.10
2018-03-22T11:17:57.658Z,6.90
2018-03-22T11:20:01.937Z,6.90
2018-03-22T11:22:05.533Z,6.90
2018-03-22T11:24:09.062Z,6.70
2018-03-22T11:26:12.642Z,6.90
2018-03-22T11:28:17.026Z,7.00
2018-03-22T11:30:20.529Z,7.00
2018-03-22T11:32:24.078Z,7.00
2018-03-22T11:34:27.618Z,6.90
2018-03-22T11:36:31.233Z,6.70
2018-03-22T11:38:35.565Z,6.70
2018-03-22T11:40:39.114Z,6.70
2018-03-22T11:42:43.367Z,6.90
2018-03-22T11:44:46.980Z,6.90
2018-03-22T11:46:50.547Z,7.00
2018-03-22T11:48:54.859Z,7.10
2018-03-22T11:50:59.154Z,7.10
2018-03-22T11:53:02.703Z,7.10
2018-03-22T11:55:06.275Z,7.10
2018-03-22T11:57:10.571Z,6.90
2018-03-22T11:59:14.047Z,6.90
2018-03-22T12:01:17.565Z,6.80
2018-03-22T12:03:21.047Z,6.80
2018-03-22T12:05:24.612Z,6.70
2018-03-22T12:07:28.167Z,6.60
2018-03-22T12:09:32.473Z,6.70
2018-03-22T12:11:36.788Z,6.70
2018-03-22T12:13:41.058Z,6.60
2018-03-22T12:15:44.629Z,6.60
2018-03-22T12:17:48.510Z,6.60
2018-03-22T12:19:52.012Z,6.70
2018-03-22T12:21:55.643Z,6.70
2018-03-22T12:23:59.958Z,6.70
2018-03-22T12:26:03.582Z,6.70
2018-03-22T12:28:07.946Z,6.70
2018-03-22T12:30:11.445Z,6.70
2018-03-22T12:32:14.982Z,6.80
2018-03-22T12:34:18.484Z,6.60
2018-03-22T12:36:22.088Z,6.40
2018-03-22T12:38:26.423Z,6.50
2018-03-22T12:40:29.974Z,6.50
2018-03-22T12:42:33.474Z,6.40
2018-03-22T12:44:37.065Z,6.40
2018-03-22T12:46:40.918Z,6.40
2018-03-22T12:48:45.548Z,6.50
2018-03-22T12:50:49.089Z,6.50
2018-03-22T12:52:52.634Z,6.70
2018-03-22T12:54:56.161Z,6.70
2018-03-22T12:57:00.406Z,6.50
2018-03-22T12:59:04.709Z,6.60
2018-03-22T13:01:08.261Z,6.60
2018-03-22T13:03:11.802Z,6.60
2018-03-22T13:05:15.328Z,6.60
2018-03-22T13:07:18.870Z,6.70
2018-03-22T13:09:22.539Z,6.60
2018-03-22T13:11:26.058Z,6.50
2018-03-22T13:13:29.540Z,6.60
2018-03-22T13:15:33.835Z,6.50
2018-03-22T13:17:37.426Z,6.50
2018-03-22T13:19:40.994Z,6.70
2018-03-22T13:21:45.265Z,6.90
2018-03-22T13:23:48.798Z,6.90
2018-03-22T13:25:53.145Z,7.20
2018-03-22T13:27:56.698Z,7.10
2018-03-22T13:30:00.245Z,7.30
2018-03-22T13:32:03.809Z,7.20
2018-03-22T13:34:07.359Z,7.00
2018-03-22T13:36:10.873Z,7.10
2018-03-22T13:38:14.460Z,7.20
2018-03-22T13:40:17.991Z,7.10
2018-03-22T13:42:22.316Z,7.20
2018-03-22T13:44:26.608Z,7.30
2018-03-22T13:46:30.936Z,7.40
2018-03-22T13:48:35.250Z,7.30
2018-03-22T13:50:39.508Z,7.30
2018-03-22T13:52:43.021Z,7.40
2018-03-22T13:54:46.598Z,7.40
2018-03-22T13:56:50.158Z,7.50
2018-03-22T13:58:53.707Z,7.40
2018-03-22T14:00:57.290Z,7.40
2018-03-22T14:03:00.850Z,7.40
2018-03-22T14:05:05.529Z,7.50
2018-03-22T14:07:09.096Z,7.40
2018-03-22T14:09:12.719Z,7.50
2018-03-22T14:11:16.368Z,7.60
2018-03-22T14:13:19.918Z,7.40
2018-03-22T14:15:23.437Z,7.30
2018-03-22T14:17:27.037Z,7.60
2018-03-22T14:19:30.579Z,7.70
2018-03-22T14:21:34.104Z,8.00
2018-03-22T14:23:37.649Z,8.00
2018-03-22T14:25:41.247Z,7.90
2018-03-22T14:27:44.728Z,7.90
2018-03-22T14:29:48.305Z,7.80
2018-03-22T14:31:51.821Z,7.70
2018-03-22T14:33:55.306Z,7.30
2018-03-22T14:35:59.629Z,7.40
2018-03-22T14:38:03.114Z,7.40
2018-03-22T14:40:07.499Z,7.30
2018-03-22T14:42:11.799Z,7.20
2018-03-22T14:44:16.134Z,7.00
2018-03-22T14:46:19.662Z,7.00
2018-03-22T14:48:23.224Z,6.90
2018-03-22T14:50:26.735Z,7.00
2018-03-22T14:52:31.047Z,6.90
2018-03-22T14:54:35.363Z,6.90
2018-03-22T14:56:39.624Z,6.60
2018-03-22T14:58:43.153Z,6.60
2018-03-22T15:00:46.696Z,6.70
2018-03-22T15:02:50.288Z,6.90
2018-03-22T15:04:53.814Z,6.90
2018-03-22T15:06:57.364Z,6.90
2018-03-22T15:09:00.961Z,7.10
2018-03-22T15:11:05.563Z,6.90
2018-03-22T15:13:09.893Z,7.10
2018-03-22T15:15:13.452Z,7.10
2018-03-22T15:17:17.156Z,6.90
2018-03-22T15:19:20.737Z,7.20
2018-03-22T15:21:24.292Z,7.10
2018-03-22T15:23:27.836Z,7.20
2018-03-22T15:25:31.415Z,7.00
2018-03-22T15:27:34.959Z,7.00
2018-03-22T15:29:39.246Z,6.90
2018-03-22T15:31:43.576Z,7.00
2018-03-22T15:33:47.089Z,6.90
2018-03-22T15:35:51.473Z,7.10
2018-03-22T15:37:55.849Z,6.70
2018-03-22T15:39:59.409Z,6.70
2018-03-22T15:42:03.002Z,6.70
2018-03-22T15:44:07.345Z,6.80
2018-03-22T15:46:10.889Z,6.80
2018-03-22T15:48:15.234Z,6.90
2018-03-22T15:50:18.744Z,6.90
2018-03-22T15:52:22.318Z,7.00
2018-03-22T15:54:26.619Z,7.00
2018-03-22T15:56:30.195Z,7.00
2018-03-22T15:58:33.681Z,6.80
2018-03-22T16:00:37.171Z,6.80
2018-03-22T16:02:40.728Z,6.70
2018-03-22T16:04:44.275Z,6.50
2018-03-22T16:06:47.773Z,6.70
2018-03-22T16:08:51.302Z,6.70
2018-03-22T16:10:55.688Z,6.70
2018-03-22T16:13:02.762Z,6.70
2018-03-22T16:15:07.435Z,6.40
2018-03-22T16:17:10.991Z,6.40
2018-03-22T16:19:14.466Z,6.50
2018-03-22T16:21:17.969Z,6.50
2018-03-22T16:23:21.545Z,6.40
2018-03-22T16:25:25.184Z,6.40
2018-03-22T16:27:29.492Z,6.40
2018-03-22T16:29:33.807Z,6.40
2018-03-22T16:31:38.121Z,6.30
2018-03-22T16:33:42.436Z,6.20
2018-03-22T16:35:46.703Z,6.30
2018-03-22T16:37:50.279Z,6.20
2018-03-22T16:39:53.782Z,6.30
2018-03-22T16:41:57.322Z,6.30
2018-03-22T16:44:00.935Z,6.20
2018-03-22T16:46:04.455Z,6.10
2018-03-22T16:48:08.043Z,6.10
2018-03-22T16:50:11.632Z,6.10
2018-03-22T16:52:15.171Z,6.10
2018-03-22T16:54:18.922Z,6.00
2018-03-22T16:56:24.790Z,6.10
2018-03-22T16:58:29.168Z,6.00
2018-03-22T17:00:32.751Z,6.10
2018-03-22T17:02:36.278Z,6.10
2018-03-22T17:04:39.839Z,6.00
2018-03-22T17:06:43.410Z,6.00
2018-03-22T17:08:47.019Z,6.00
2018-03-22T17:10:50.538Z,6.10
2018-03-22T17:12:54.100Z,6.10
2018-03-22T17:14:57.616Z,5.80
2018-03-22T17:17:01.251Z,6.00
2018-03-22T17:19:04.750Z,6.00
2018-03-22T17:21:08.249Z,5.90
2018-03-22T17:23:12.580Z,5.90
2018-03-22T17:25:16.071Z,5.90
2018-03-22T17:27:19.650Z,5.90
2018-03-22T17:29:23.974Z,5.70
2018-03-22T17:31:27.523Z,5.70
2018-03-22T17:33:31.927Z,5.80
2018-03-22T17:35:35.495Z,5.80
2018-03-22T17:37:39.029Z,5.70
2018-03-22T17:39:42.575Z,5.80
2018-03-22T17:41:46.217Z,5.70
2018-03-22T17:43:49.820Z,5.70
2018-03-22T17:45:53.422Z,5.60
2018-03-22T17:47:57.781Z,5.80
2018-03-22T17:50:01.362Z,5.80
2018-03-22T17:52:04.977Z,5.70
2018-03-22T17:54:08.515Z,5.60
2018-03-22T17:56:12.119Z,5.70
2018-03-22T17:58:15.648Z,5.70
2018-03-22T18:00:19.972Z,5.80
2018-03-22T18:02:23.963Z,5.70
2018-03-22T18:04:27.512Z,5.80
2018-03-22T18:06:31.044Z,5.60
2018-03-22T18:08:34.681Z,5.70
2018-03-22T18:10:38.310Z,5.70
2018-03-22T18:12:41.854Z,5.60
2018-03-22T18:14:46.220Z,5.60
2018-03-22T18:16:49.753Z,5.60
2018-03-22T18:18:54.561Z,5.40
2018-03-22T18:20:58.127Z,5.40
2018-03-22T18:23:01.649Z,5.60
2018-03-22T18:25:05.450Z,5.50
2018-03-22T18:27:09.060Z,5.50
2018-03-22T18:29:13.398Z,5.50
2018-03-22T18:31:18.037Z,5.40
2018-03-22T18:33:21.589Z,5.40
2018-03-22T18:35:26.031Z,5.60
2018-03-22T18:37:29.554Z,5.50
2018-03-22T18:39:33.093Z,5.50
2018-03-22T18:41:36.658Z,5.50
2018-03-22T18:43:40.230Z,5.40
2018-03-22T18:45:43.793Z,5.50
2018-03-22T18:47:47.463Z,5.40
2018-03-22T18:49:51.017Z,5.40
2018-03-22T18:51:54.595Z,5.40
2018-03-22T18:53:58.193Z,5.50
2018-03-22T18:56:01.787Z,5.40
2018-03-22T18:58:05.407Z,5.50
2018-03-22T19:00:08.953Z,5.30
2018-03-22T19:02:12.489Z,5.30
2018-03-22T19:04:16.065Z,5.30
2018-03-22T19:06:20.765Z,5.20
2018-03-22T19:08:24.310Z,5.20
2018-03-22T19:10:27.841Z,5.30
2018-03-22T19:12:33.248Z,5.10
2018-03-22T19:14:36.791Z,5.10
2018-03-22T19:16:40.386Z,5.20
2018-03-22T19:18:43.988Z,5.20
2018-03-22T19:20:47.500Z,5.10
2018-03-22T19:22:51.807Z,5.20
2018-03-22T19:24:56.553Z,5.10
2018-03-22T19:27:00.118Z,5.10
2018-03-22T19:29:04.687Z,5.10
2018-03-22T19:31:08.305Z,5.10
2018-03-22T19:33:11.855Z,5.10
2018-03-22T19:35:15.927Z,5.10
2018-03-22T19:37:19.469Z,5.00
2018-03-22T19:39:22.993Z,5.00
2018-03-22T19:41:26.561Z,5.00
2018-03-22T19:43:30.126Z,4.90
2018-03-22T19:45:34.460Z,4.90
2018-03-22T19:47:38.071Z,4.90
2018-03-22T19:49:41.616Z,4.90
2018-03-22T19:51:45.969Z,4.80
2018-03-22T19:53:49.547Z,4.80
2018-03-22T19:55:53.873Z,4.80
2018-03-22T19:57:57.449Z,4.80
2018-03-22T20:00:01.773Z,4.90
2018-03-22T20:02:05.501Z,4.90
2018-03-22T20:04:09.097Z,4.90
2018-03-22T20:06:12.668Z,4.90
2018-03-22T20:08:17.003Z,4.90
2018-03-22T20:10:20.669Z,4.90
2018-03-22T20:12:24.300Z,4.90
2018-03-22T20:14:27.792Z,4.90
2018-03-22T20:16:31.402Z,4.80
2018-03-22T20:18:35.000Z,4.80
2018-03-22T20:20:39.368Z,4.90
2018-03-22T20:22:43.750Z,4.80
2018-03-22T20:24:47.380Z,4.90
2018-03-22T20:26:51.751Z,4.80
2018-03-22T20:28:55.272Z,4.80
2018-03-22T20:30:58.841Z,4.80
2018-03-22T20:33:02.423Z,4.90
2018-03-22T20:35:06.011Z,4.70
2018-03-22T20:37:09.516Z,4.60
2018-03-22T20:39:13.077Z,4.60
2018-03-22T20:41:17.403Z,4.60
2018-03-22T20:43:20.932Z,4.60
2018-03-22T20:45:24.509Z,4.60
2018-03-22T20:47:28.157Z,4.60
2018-03-22T20:49:31.714Z,4.70
2018-03-22T20:51:35.241Z,4.80
2018-03-22T20:53:38.832Z,4.70
2018-03-22T20:55:42.468Z,4.80
2018-03-22T20:57:46.795Z,4.80
2018-03-22T20:59:50.355Z,4.80
2018-03-22T21:01:53.941Z,4.80
2018-03-22T21:03:57.666Z,4.70
2018-03-22T21:06:01.255Z,4.60
2018-03-22T21:08:04.820Z,4.70
2018-03-22T21:10:08.400Z,4.80
2018-03-22T21:12:12.014Z,4.70
2018-03-22T21:14:15.615Z,4.70
2018-03-22T21:16:19.160Z,4.80
2018-03-22T21:18:22.714Z,4.70
2018-03-22T21:20:26.234Z,4.70
2018-03-22T21:22:30.526Z,4.80
2018-03-22T21:24:34.085Z,4.80
2018-03-22T21:26:37.674Z,4.90
2018-03-22T21:28:41.237Z,4.70
2018-03-22T21:30:45.588Z,4.70
2018-03-22T21:32:49.190Z,4.70
2018-03-22T21:34:52.740Z,4.60
2018-03-22T21:36:56.399Z,4.80
2018-03-22T21:39:00.750Z,4.60
2018-03-22T21:41:04.385Z,4.60
2018-03-22T21:43:07.950Z,4.70
2018-03-22T21:45:12.281Z,4.70
2018-03-22T21:47:27.623Z,4.70
2018-03-22T21:49:31.190Z,4.70
2018-03-22T21:51:34.748Z,4.80
2018-03-22T21:53:38.540Z,4.70
2018-03-22T21:55:42.130Z,4.70
2018-03-22T21:57:45.710Z,4.90
2018-03-22T21:59:49.305Z,4.90
2018-03-22T22:01:53.682Z,5.00
2018-03-22T22:03:57.208Z,4.90
2018-03-22T22:06:00.754Z,4.90
2018-03-22T22:08:04.408Z,4.80
2018-03-22T22:10:08.018Z,4.90
2018-03-22T22:12:11.525Z,4.80
2018-03-22T22:14:15.870Z,4.80
2018-03-22T22:16:19.450Z,4.80
2018-03-22T22:18:23.000Z,4.90
2018-03-22T22:20:26.560Z,4.90
2018-03-22T22:22:30.108Z,4.80
2018-03-22T22:24:33.685Z,4.80
2018-03-22T22:26:37.274Z,4.80
2018-03-22T22:28:40.814Z,4.90
2018-03-22T22:30:45.157Z,4.80
2018-03-22T22:32:48.676Z,4.70
2018-03-22T22:34:52.224Z,4.90
2018-03-22T22:36:55.794Z,4.80
2018-03-22T22:38:59.408Z,4.90
2018-03-22T22:41:03.720Z,4.90
2018-03-22T22:43:08.056Z,4.70
2018-03-22T22:45:11.611Z,4.70
2018-03-22T22:47:15.173Z,4.80
2018-03-22T22:49:18.714Z,4.80
2018-03-22T22:51:22.282Z,4.80
2018-03-22T22:53:25.862Z,4.90
2018-03-22T22:55:29.424Z,4.80
2018-03-22T22:57:33.017Z,4.80
2018-03-22T22:59:36.603Z,4.90
2018-03-22T23:01:40.911Z,4.80
2018-03-22T23:03:45.246Z,4.80
2018-03-22T23:05:48.832Z,4.90
2018-03-22T23:07:52.411Z,4.80
2018-03-22T23:09:56.774Z,4.90
2018-03-22T23:12:00.336Z,4.90
2018-03-22T23:14:03.925Z,4.90
2018-03-22T23:16:07.547Z,4.80
2018-03-22T23:18:11.061Z,4.90
2018-03-22T23:20:14.686Z,4.80
2018-03-22T23:22:18.989Z,4.80
2018-03-22T23:24:22.540Z,4.70
2018-03-22T23:26:26.119Z,4.80
2018-03-22T23:28:29.728Z,4.80
2018-03-22T23:30:33.284Z,4.80
2018-03-22T23:32:36.876Z,4.90
2018-03-22T23:34:40.436Z,4.90
2018-03-22T23:36:43.962Z,4.80
2018-03-22T23:38:47.537Z,4.80
2018-03-22T23:40:51.108Z,4.80
2018-03-22T23:42:54.640Z,4.80
2018-03-22T23:44:58.212Z,4.80
2018-03-22T23:47:01.754Z,4.80
2018-03-22T23:49:05.299Z,4.80
2018-03-22T23:51:08.822Z,4.80
2018-03-22T23:53:12.682Z,4.80
2018-03-22T23:55:16.207Z,4.90
2018-03-22T23:57:19.760Z,4.80
2018-03-22T23:59:23.366Z,4.80
